Weather at Marlboro Airport

Public forecast

Using degrees Fahrenheit for public forecast. Weather courtesy of forecast.io.

Closest aviation weather report (METAR) to Marlboro Airport

Closest report is Laurence G Hanscom Field, 12.4 nm (22.9 km) NE. Retrieved 2020/09/22 12:51 UTC (41 minutes ago):

KBED 221251Z 34005KT 10SM CLR A3014 RMK AO2 SLPNO

Closest aviation forecast (TAF) to Marlboro Airport

Closest forecast is Laurence G Hanscom Field, 12.4 nm (22.9 km) NE. Retrieved 2020/09/22 12:28 UTC (1 hour ago):

TAF KBED 221125Z 2212/2312 35007KT P6SM FEW250 FM221500 36013G23KT P6SM SCT250 FM222100 34015G27KT P6SM SCT250 FM230000 33013G20KT P6SM FEW250 FM230400 31010G18KT P6SM FEW250 FM230900 29007KT P6SM FEW250